sensor_id;sensor_type;location;lat;lon;timestamp;pressure;altitude;pressure_sealevel;temperature;humidity
7170;BME280;3626;42.656;23.312;2023-03-26T00:00:06;94072.25;;;8.92;93.22
7170;BME280;3626;42.656;23.312;2023-03-26T00:00:14;94075.63;;;8.93;93.78
7170;BME280;3626;42.656;23.312;2023-03-26T00:00:20;94073.06;;;8.93;93.48
7170;BME280;3626;42.656;23.312;2023-03-26T00:00:25;94060.19;;;8.93;93.49
7170;BME280;3626;42.656;23.312;2023-03-26T00:00:32;94070.47;;;8.93;93.49
7170;BME280;3626;42.656;23.312;2023-03-26T00:00:39;94071.44;;;8.92;93.12
7170;BME280;3626;42.656;23.312;2023-03-26T00:00:47;94068.06;;;8.91;93.65
7170;BME280;3626;42.656;23.312;2023-03-26T00:00:54;94063.88;;;8.90;93.42
7170;BME280;3626;42.656;23.312;2023-03-26T00:01:01;94066.28;;;8.92;94.05
7170;BME280;3626;42.656;23.312;2023-03-26T00:01:12;94069.69;;;8.92;93.66
7170;BME280;3626;42.656;23.312;2023-03-26T00:01:19;94060.34;;;8.91;93.71
7170;BME280;3626;42.656;23.312;2023-03-26T00:01:27;94052.00;;;8.89;93.98
7170;BME280;3626;42.656;23.312;2023-03-26T00:01:34;94058.75;;;8.90;93.90
7170;BME280;3626;42.656;23.312;2023-03-26T00:01:40;94063.09;;;8.90;94.09
7170;BME280;3626;42.656;23.312;2023-03-26T00:01:50;94055.38;;;8.90;93.59
7170;BME280;3626;42.656;23.312;2023-03-26T00:01:56;94059.53;;;8.91;94.16
7170;BME280;3626;42.656;23.312;2023-03-26T00:02:02;94064.69;;;8.91;93.42
7170;BME280;3626;42.656;23.312;2023-03-26T00:02:08;94046.84;;;8.89;93.40
7170;BME280;3626;42.656;23.312;2023-03-26T00:02:14;94064.69;;;8.91;93.80
7170;BME280;3626;42.656;23.312;2023-03-26T00:02:20;94053.78;;;8.89;94.07
7170;BME280;3626;42.656;23.312;2023-03-26T00:02:25;94061.50;;;8.89;93.96
7170;BME280;3626;42.656;23.312;2023-03-26T00:02:33;94054.56;;;8.89;94.13
7170;BME280;3626;42.656;23.312;2023-03-26T00:02:39;94062.47;;;8.88;94.25
7170;BME280;3626;42.656;23.312;2023-03-26T00:02:45;94071.00;;;8.88;94.49
7170;BME280;3626;42.656;23.312;2023-03-26T00:02:52;94065.03;;;8.88;94.58
7170;BME280;3626;42.656;23.312;2023-03-26T00:02:58;94064.22;;;8.87;94.54
7170;BME280;3626;42.656;23.312;2023-03-26T00:03:03;94072.75;;;8.88;94.61
7170;BME280;3626;42.656;23.312;2023-03-26T00:03:10;94071.94;;;8.87;94.50
7170;BME280;3626;42.656;23.312;2023-03-26T00:03:16;94070.19;;;8.88;94.43
7170;BME280;3626;42.656;23.312;2023-03-26T00:03:22;94068.56;;;8.87;94.83
7170;BME280;3626;42.656;23.312;2023-03-26T00:03:28;94077.09;;;8.87;94.77
7170;BME280;3626;42.656;23.312;2023-03-26T00:03:34;94062.63;;;8.86;95.05
7170;BME280;3626;42.656;23.312;2023-03-26T00:03:41;94066.97;;;8.86;94.34
7170;BME280;3626;42.656;23.312;2023-03-26T00:03:50;94064.41;;;8.86;94.78
7170;BME280;3626;42.656;23.312;2023-03-26T00:03:58;94061.03;;;8.85;94.82
7170;BME280;3626;42.656;23.312;2023-03-26T00:04:06;94070.53;;;8.85;94.91
7170;BME280;3626;42.656;23.312;2023-03-26T00:04:12;94064.41;;;8.86;94.96
7170;BME280;3626;42.656;23.312;2023-03-26T00:04:18;94075.66;;;8.85;94.72
7170;BME280;3626;42.656;23.312;2023-03-26T00:04:26;94063.78;;;8.84;94.26
7170;BME280;3626;42.656;23.312;2023-03-26T00:04:32;94060.38;;;8.83;95.10
7170;BME280;3626;42.656;23.312;2023-03-26T00:04:38;94069.72;;;8.84;94.28
7170;BME280;3626;42.656;23.312;2023-03-26T00:04:47;94070.66;;;8.83;94.82
7170;BME280;3626;42.656;23.312;2023-03-26T00:04:52;94078.25;;;8.85;94.59
7170;BME280;3626;42.656;23.312;2023-03-26T00:04:58;94068.91;;;8.84;94.51
7170;BME280;3626;42.656;23.312;2023-03-26T00:05:05;94067.94;;;8.85;95.23
7170;BME280;3626;42.656;23.312;2023-03-26T00:05:11;94069.72;;;8.84;94.98
7170;BME280;3626;42.656;23.312;2023-03-26T00:05:18;94062.16;;;8.83;95.10
7170;BME280;3626;42.656;23.312;2023-03-26T00:05:24;94062.16;;;8.83;94.81
7170;BME280;3626;42.656;23.312;2023-03-26T00:05:30;94068.09;;;8.83;94.32
7170;BME280;3626;42.656;23.312;2023-03-26T00:05:36;94068.09;;;8.83;94.71
7170;BME280;3626;42.656;23.312;2023-03-26T00:05:42;94061.19;;;8.84;95.08
7170;BME280;3626;42.656;23.312;2023-03-26T00:06:00;94077.59;;;8.83;94.52
7170;BME280;3626;42.656;23.312;2023-03-26T00:06:09;94064.91;;;8.81;94.47
7170;BME280;3626;42.656;23.312;2023-03-26T00:06:17;94067.47;;;8.81;95.08
7170;BME280;3626;42.656;23.312;2023-03-26T00:06:24;94063.94;;;8.82;95.15
7170;BME280;3626;42.656;23.312;2023-03-26T00:06:32;94066.69;;;8.81;94.99
7170;BME280;3626;42.656;23.312;2023-03-26T00:06:41;94066.69;;;8.81;94.60
7170;BME280;3626;42.656;23.312;2023-03-26T00:06:46;94065.88;;;8.80;95.41
7170;BME280;3626;42.656;23.312;2023-03-26T00:06:53;94074.41;;;8.81;95.61
7170;BME280;3626;42.656;23.312;2023-03-26T00:06:59;94070.06;;;8.81;95.17
7170;BME280;3626;42.656;23.312;2023-03-26T00:07:05;94076.19;;;8.80;94.72
7170;BME280;3626;42.656;23.312;2023-03-26T00:07:10;94078.75;;;8.80;94.66
7170;BME280;3626;42.656;23.312;2023-03-26T00:07:17;94064.25;;;8.79;95.39
7170;BME280;3626;42.656;23.312;2023-03-26T00:07:26;94061.69;;;8.79;95.53
7170;BME280;3626;42.656;23.312;2023-03-26T00:07:32;94059.09;;;8.79;95.54
7170;BME280;3626;42.656;23.312;2023-03-26T00:07:38;94066.81;;;8.79;95.33
7170;BME280;3626;42.656;23.312;2023-03-26T00:07:44;94074.53;;;8.79;95.43
7170;BME280;3626;42.656;23.312;2023-03-26T00:07:50;94069.59;;;8.77;95.22
7170;BME280;3626;42.656;23.312;2023-03-26T00:07:56;94080.66;;;8.78;95.17
7170;BME280;3626;42.656;23.312;2023-03-26T00:08:02;94070.38;;;8.78;95.21
7170;BME280;3626;42.656;23.312;2023-03-26T00:08:08;94069.41;;;8.79;95.00
7170;BME280;3626;42.656;23.312;2023-03-26T00:08:15;94068.59;;;8.79;94.94
7170;BME280;3626;42.656;23.312;2023-03-26T00:08:21;94065.22;;;8.78;95.10
7170;BME280;3626;42.656;23.312;2023-03-26T00:08:26;94083.25;;;8.78;94.85
7170;BME280;3626;42.656;23.312;2023-03-26T00:08:32;94066.22;;;8.77;95.26
7170;BME280;3626;42.656;23.312;2023-03-26T00:08:40;94062.84;;;8.76;95.40
7170;BME280;3626;42.656;23.312;2023-03-26T00:08:47;94079.06;;;8.77;95.10
7170;BME280;3626;42.656;23.312;2023-03-26T00:08:55;94081.81;;;8.75;95.04
7170;BME280;3626;42.656;23.312;2023-03-26T00:09:03;94081.81;;;8.75;95.56
7170;BME280;3626;42.656;23.312;2023-03-26T00:09:10;94076.69;;;8.75;95.53
7170;BME280;3626;42.656;23.312;2023-03-26T00:09:17;94075.88;;;8.75;95.54
7170;BME280;3626;42.656;23.312;2023-03-26T00:09:23;94068.97;;;8.75;95.25
7170;BME280;3626;42.656;23.312;2023-03-26T00:09:29;94075.06;;;8.74;95.62
7170;BME280;3626;42.656;23.312;2023-03-26T00:09:35;94072.66;;;8.73;95.51
7170;BME280;3626;42.656;23.312;2023-03-26T00:09:41;94075.88;;;8.75;95.46
7170;BME280;3626;42.656;23.312;2023-03-26T00:09:47;94071.69;;;8.74;95.77
7170;BME280;3626;42.656;23.312;2023-03-26T00:09:52;94075.88;;;8.75;95.71
7170;BME280;3626;42.656;23.312;2023-03-26T00:10:00;94072.47;;;8.74;96.02
7170;BME280;3626;42.656;23.312;2023-03-26T00:10:06;94075.06;;;8.74;95.96
7170;BME280;3626;42.656;23.312;2023-03-26T00:10:12;94076.69;;;8.75;95.72
7170;BME280;3626;42.656;23.312;2023-03-26T00:10:19;94074.25;;;8.74;95.82
7170;BME280;3626;42.656;23.312;2023-03-26T00:10:25;94073.47;;;8.73;95.72
7170;BME280;3626;42.656;23.312;2023-03-26T00:10:31;94072.66;;;8.73;96.00
7170;BME280;3626;42.656;23.312;2023-03-26T00:10:39;94078.59;;;8.73;96.13
7170;BME280;3626;42.656;23.312;2023-03-26T00:10:45;94074.25;;;8.74;95.34
7170;BME280;3626;42.656;23.312;2023-03-26T00:10:51;94068.31;;;8.73;95.91
7170;BME280;3626;42.656;23.312;2023-03-26T00:10:57;94086.31;;;8.73;95.64
7170;BME280;3626;42.656;23.312;2023-03-26T00:11:03;94080.38;;;8.73;95.74
7170;BME280;3626;42.656;23.312;2023-03-26T00:11:12;94077.81;;;8.73;96.19
7170;BME280;3626;42.656;23.312;2023-03-26T00:11:19;94074.44;;;8.72;96.27
7170;BME280;3626;42.656;23.312;2023-03-26T00:11:27;94077.97;;;8.71;96.02
7170;BME280;3626;42.656;23.312;2023-03-26T00:11:33;94065.28;;;8.70;96.17
7170;BME280;3626;42.656;23.312;2023-03-26T00:11:39;94074.63;;;8.71;95.59
7170;BME280;3626;42.656;23.312;2023-03-26T00:11:45;94072.03;;;8.71;95.94
7170;BME280;3626;42.656;23.312;2023-03-26T00:11:51;94074.63;;;8.71;96.19
7170;BME280;3626;42.656;23.312;2023-03-26T00:11:57;94077.97;;;8.71;96.25
7170;BME280;3626;42.656;23.312;2023-03-26T00:12:03;94073.78;;;8.70;96.40
7170;BME280;3626;42.656;23.312;2023-03-26T00:12:09;94073.78;;;8.70;95.58
7170;BME280;3626;42.656;23.312;2023-03-26T00:12:15;94075.56;;;8.70;96.28
7170;BME280;3626;42.656;23.312;2023-03-26T00:12:20;94073.00;;;8.70;96.06
7170;BME280;3626;42.656;23.312;2023-03-26T00:12:26;94085.84;;;8.70;96.15
7170;BME280;3626;42.656;23.312;2023-03-26T00:12:32;94084.06;;;8.70;95.84
7170;BME280;3626;42.656;23.312;2023-03-26T00:12:38;94083.28;;;8.70;96.42
7170;BME280;3626;42.656;23.312;2023-03-26T00:12:43;94084.06;;;8.70;96.18
7170;BME280;3626;42.656;23.312;2023-03-26T00:12:49;94094.38;;;8.70;97.02
7170;BME280;3626;42.656;23.312;2023-03-26T00:12:55;94078.13;;;8.70;96.70
7170;BME280;3626;42.656;23.312;2023-03-26T00:13:03;94073.97;;;8.69;96.31
7170;BME280;3626;42.656;23.312;2023-03-26T00:13:09;94080.09;;;8.68;96.60
7170;BME280;3626;42.656;23.312;2023-03-26T00:13:15;94075.75;;;8.68;96.33
7170;BME280;3626;42.656;23.312;2023-03-26T00:13:20;94075.75;;;8.68;96.56
7170;BME280;3626;42.656;23.312;2023-03-26T00:13:26;94079.09;;;8.69;96.11
7170;BME280;3626;42.656;23.312;2023-03-26T00:13:33;94074.94;;;8.68;96.77
7170;BME280;3626;42.656;23.312;2023-03-26T00:13:40;94082.66;;;8.68;96.24
7170;BME280;3626;42.656;23.312;2023-03-26T00:13:48;94075.75;;;8.68;96.54
7170;BME280;3626;42.656;23.312;2023-03-26T00:13:54;94081.69;;;8.69;96.91
7170;BME280;3626;42.656;23.312;2023-03-26T00:14:02;94080.09;;;8.68;96.66
7170;BME280;3626;42.656;23.312;2023-03-26T00:14:08;94072.38;;;8.68;96.89
7170;BME280;3626;42.656;23.312;2023-03-26T00:14:17;94074.94;;;8.68;96.56
7170;BME280;3626;42.656;23.312;2023-03-26T00:14:23;94081.69;;;8.69;97.34
7170;BME280;3626;42.656;23.312;2023-03-26T00:14:30;94076.53;;;8.69;96.57
7170;BME280;3626;42.656;23.312;2023-03-26T00:14:37;94074.94;;;8.68;97.04
7170;BME280;3626;42.656;23.312;2023-03-26T00:14:42;94080.88;;;8.68;96.84
7170;BME280;3626;42.656;23.312;2023-03-26T00:14:49;94080.88;;;8.68;96.68
7170;BME280;3626;42.656;23.312;2023-03-26T00:14:57;94076.06;;;8.65;97.55
7170;BME280;3626;42.656;23.312;2023-03-26T00:15:03;94080.41;;;8.65;96.96
7170;BME280;3626;42.656;23.312;2023-03-26T00:15:09;94082.00;;;8.66;97.26
7170;BME280;3626;42.656;23.312;2023-03-26T00:15:15;94075.25;;;8.65;97.65
7170;BME280;3626;42.656;23.312;2023-03-26T00:15:21;94079.44;;;8.66;97.46
7170;BME280;3626;42.656;23.312;2023-03-26T00:15:27;94070.13;;;8.65;96.95
7170;BME280;3626;42.656;23.312;2023-03-26T00:15:33;94079.44;;;8.66;97.24
7170;BME280;3626;42.656;23.312;2023-03-26T00:15:39;94079.44;;;8.66;97.38
7170;BME280;3626;42.656;23.312;2023-03-26T00:15:45;94073.50;;;8.65;97.09
7170;BME280;3626;42.656;23.312;2023-03-26T00:15:51;94075.09;;;8.66;97.00
7170;BME280;3626;42.656;23.312;2023-03-26T00:15:57;94075.25;;;8.65;97.01
7170;BME280;3626;42.656;23.312;2023-03-26T00:16:03;94082.00;;;8.66;97.11
7170;BME280;3626;42.656;23.312;2023-03-26T00:16:10;94077.66;;;8.66;97.55
7170;BME280;3626;42.656;23.312;2023-03-26T00:16:18;94080.22;;;8.66;97.12
7170;BME280;3626;42.656;23.312;2023-03-26T00:16:26;94076.88;;;8.66;97.34
7170;BME280;3626;42.656;23.312;2023-03-26T00:16:33;94079.44;;;8.66;97.67
7170;BME280;3626;42.656;23.312;2023-03-26T00:16:39;94078.50;;;8.67;97.16
7170;BME280;3626;42.656;23.312;2023-03-26T00:16:46;94079.28;;;8.67;97.74
7170;BME280;3626;42.656;23.312;2023-03-26T00:16:53;94077.50;;;8.68;97.16
7170;BME280;3626;42.656;23.312;2023-03-26T00:16:59;94075.91;;;8.67;97.42
7170;BME280;3626;42.656;23.312;2023-03-26T00:17:05;94078.50;;;8.67;97.24
7170;BME280;3626;42.656;23.312;2023-03-26T00:17:10;94075.91;;;8.67;97.07
7170;BME280;3626;42.656;23.312;2023-03-26T00:17:16;94074.16;;;8.67;97.31
7170;BME280;3626;42.656;23.312;2023-03-26T00:17:22;94077.50;;;8.68;97.43
7170;BME280;3626;42.656;23.312;2023-03-26T00:17:28;94073.16;;;8.68;97.78
7170;BME280;3626;42.656;23.312;2023-03-26T00:17:34;94080.09;;;8.68;97.65
7170;BME280;3626;42.656;23.312;2023-03-26T00:17:39;94075.91;;;8.67;97.28
7170;BME280;3626;42.656;23.312;2023-03-26T00:17:45;94069.00;;;8.67;97.05
7170;BME280;3626;42.656;23.312;2023-03-26T00:17:52;94069.78;;;8.68;97.35
7170;BME280;3626;42.656;23.312;2023-03-26T00:17:58;94072.53;;;8.66;97.09
7170;BME280;3626;42.656;23.312;2023-03-26T00:18:05;94071.72;;;8.66;97.07
7170;BME280;3626;42.656;23.312;2023-03-26T00:18:13;94071.72;;;8.66;97.66
7170;BME280;3626;42.656;23.312;2023-03-26T00:18:20;94067.56;;;8.65;97.72
7170;BME280;3626;42.656;23.312;2023-03-26T00:18:29;94073.66;;;8.64;97.78
7170;BME280;3626;42.656;23.312;2023-03-26T00:18:35;94077.22;;;8.63;97.80
7170;BME280;3626;42.656;23.312;2023-03-26T00:18:42;94071.25;;;8.62;98.00
7170;BME280;3626;42.656;23.312;2023-03-26T00:18:48;94072.06;;;8.63;97.62
7170;BME280;3626;42.656;23.312;2023-03-26T00:18:56;94078.97;;;8.62;97.82
7170;BME280;3626;42.656;23.312;2023-03-26T00:19:04;94069.50;;;8.63;97.26
7170;BME280;3626;42.656;23.312;2023-03-26T00:19:10;94067.88;;;8.62;97.58
7170;BME280;3626;42.656;23.312;2023-03-26T00:19:17;94063.53;;;8.62;97.57
7170;BME280;3626;42.656;23.312;2023-03-26T00:19:26;94071.25;;;8.62;97.62
7170;BME280;3626;42.656;23.312;2023-03-26T00:19:32;94072.88;;;8.63;97.23
7170;BME280;3626;42.656;23.312;2023-03-26T00:19:38;94072.88;;;8.63;97.07
7170;BME280;3626;42.656;23.312;2023-03-26T00:19:44;94067.72;;;8.63;97.85
7170;BME280;3626;42.656;23.312;2023-03-26T00:19:50;94069.50;;;8.63;97.42
7170;BME280;3626;42.656;23.312;2023-03-26T00:19:57;94070.44;;;8.62;97.10
7170;BME280;3626;42.656;23.312;2023-03-26T00:20:05;94069.50;;;8.63;97.79
7170;BME280;3626;42.656;23.312;2023-03-26T00:20:12;94068.69;;;8.62;97.89
7170;BME280;3626;42.656;23.312;2023-03-26T00:20:18;94066.09;;;8.62;97.43
7170;BME280;3626;42.656;23.312;2023-03-26T00:20:24;94066.09;;;8.62;97.48
7170;BME280;3626;42.656;23.312;2023-03-26T00:20:30;94072.06;;;8.63;98.01
7170;BME280;3626;42.656;23.312;2023-03-26T00:20:37;94066.94;;;8.63;97.78
7170;BME280;3626;42.656;23.312;2023-03-26T00:20:42;94068.69;;;8.62;97.73
7170;BME280;3626;42.656;23.312;2023-03-26T00:20:49;94063.38;;;8.64;98.00
7170;BME280;3626;42.656;23.312;2023-03-26T00:20:55;94070.31;;;8.63;98.09
7170;BME280;3626;42.656;23.312;2023-03-26T00:21:04;94069.50;;;8.63;98.50
7170;BME280;3626;42.656;23.312;2023-03-26T00:21:12;94068.53;;;8.64;98.06
7170;BME280;3626;42.656;23.312;2023-03-26T00:21:20;94070.44;;;8.62;98.24
7170;BME280;3626;42.656;23.312;2023-03-26T00:21:27;94070.44;;;8.62;98.40
7170;BME280;3626;42.656;23.312;2023-03-26T00:21:34;94075.59;;;8.62;98.29
7170;BME280;3626;42.656;23.312;2023-03-26T00:21:40;94063.53;;;8.62;97.99
7170;BME280;3626;42.656;23.312;2023-03-26T00:21:46;94064.50;;;8.61;98.02
7170;BME280;3626;42.656;23.312;2023-03-26T00:21:52;94063.53;;;8.62;98.31
7170;BME280;3626;42.656;23.312;2023-03-26T00:22:01;94070.44;;;8.62;98.09
7170;BME280;3626;42.656;23.312;2023-03-26T00:22:07;94064.50;;;8.61;98.18
7170;BME280;3626;42.656;23.312;2023-03-26T00:22:15;94061.13;;;8.61;97.96
7170;BME280;3626;42.656;23.312;2023-03-26T00:22:21;94059.22;;;8.63;98.22
7170;BME280;3626;42.656;23.312;2023-03-26T00:22:27;94063.53;;;8.62;97.81
7170;BME280;3626;42.656;23.312;2023-03-26T00:22:33;94061.94;;;8.61;98.10
7170;BME280;3626;42.656;23.312;2023-03-26T00:22:40;94056.78;;;8.61;97.62
7170;BME280;3626;42.656;23.312;2023-03-26T00:22:46;94060.16;;;8.62;97.30
7170;BME280;3626;42.656;23.312;2023-03-26T00:22:52;94065.31;;;8.62;97.17
7170;BME280;3626;42.656;23.312;2023-03-26T00:22:59;94060.97;;;8.62;97.42
7170;BME280;3626;42.656;23.312;2023-03-26T00:23:05;94061.94;;;8.61;97.20
7170;BME280;3626;42.656;23.312;2023-03-26T00:23:12;94050.84;;;8.61;97.76
7170;BME280;3626;42.656;23.312;2023-03-26T00:23:18;94060.97;;;8.62;97.05
7170;BME280;3626;42.656;23.312;2023-03-26T00:23:24;94060.16;;;8.62;97.66
7170;BME280;3626;42.656;23.312;2023-03-26T00:23:33;94062.72;;;8.62;97.85
7170;BME280;3626;42.656;23.312;2023-03-26T00:23:40;94060.16;;;8.62;97.78
7170;BME280;3626;42.656;23.312;2023-03-26T00:23:46;94060.34;;;8.60;97.40
7170;BME280;3626;42.656;23.312;2023-03-26T00:23:53;94055.81;;;8.62;97.42
7170;BME280;3626;42.656;23.312;2023-03-26T00:24:01;94055.00;;;8.62;97.87
7170;BME280;3626;42.656;23.312;2023-03-26T00:24:13;94061.78;;;8.63;97.74
7170;BME280;3626;42.656;23.312;2023-03-26T00:24:19;94061.78;;;8.63;97.92
7170;BME280;3626;42.656;23.312;2023-03-26T00:24:24;94055.00;;;8.62;97.90
7170;BME280;3626;42.656;23.312;2023-03-26T00:24:33;94060.81;;;8.64;97.33
7170;BME280;3626;42.656;23.312;2023-03-26T00:24:41;94058.25;;;8.64;97.60
7170;BME280;3626;42.656;23.312;2023-03-26T00:24:50;94059.03;;;8.64;97.50
7170;BME280;3626;42.656;23.312;2023-03-26T00:24:56;94059.84;;;8.65;98.10
7170;BME280;3626;42.656;23.312;2023-03-26T00:25:04;94056.47;;;8.64;97.37
7170;BME280;3626;42.656;23.312;2023-03-26T00:25:11;94059.84;;;8.65;97.76
7170;BME280;3626;42.656;23.312;2023-03-26T00:25:18;94061.44;;;8.66;97.74
7170;BME280;3626;42.656;23.312;2023-03-26T00:25:24;94057.25;;;8.65;97.77
7170;BME280;3626;42.656;23.312;2023-03-26T00:25:30;94050.34;;;8.65;97.43
7170;BME280;3626;42.656;23.312;2023-03-26T00:25:36;94056.28;;;8.66;97.31
7170;BME280;3626;42.656;23.312;2023-03-26T00:25:45;94060.63;;;8.65;97.45
7170;BME280;3626;42.656;23.312;2023-03-26T00:25:55;94057.25;;;8.65;97.98
7170;BME280;3626;42.656;23.312;2023-03-26T00:26:02;94052.91;;;8.65;97.56
7170;BME280;3626;42.656;23.312;2023-03-26T00:26:08;94053.09;;;8.64;97.72
7170;BME280;3626;42.656;23.312;2023-03-26T00:26:15;94059.84;;;8.65;97.33
7170;BME280;3626;42.656;23.312;2023-03-26T00:26:21;94053.09;;;8.64;97.36
7170;BME280;3626;42.656;23.312;2023-03-26T00:26:28;94062.41;;;8.65;97.64
7170;BME280;3626;42.656;23.312;2023-03-26T00:26:36;94059.84;;;8.65;98.01
7170;BME280;3626;42.656;23.312;2023-03-26T00:26:43;94061.59;;;8.64;97.35
7170;BME280;3626;42.656;23.312;2023-03-26T00:26:49;94059.03;;;8.64;97.89
7170;BME280;3626;42.656;23.312;2023-03-26T00:26:57;94063.38;;;8.64;97.49
7170;BME280;3626;42.656;23.312;2023-03-26T00:27:04;94063.38;;;8.64;97.26
7170;BME280;3626;42.656;23.312;2023-03-26T00:27:10;94062.41;;;8.65;97.80
7170;BME280;3626;42.656;23.312;2023-03-26T00:27:16;94053.09;;;8.64;97.28
7170;BME280;3626;42.656;23.312;2023-03-26T00:27:22;94054.69;;;8.65;98.02
7170;BME280;3626;42.656;23.312;2023-03-26T00:27:28;94059.84;;;8.65;97.49
7170;BME280;3626;42.656;23.312;2023-03-26T00:27:33;94059.84;;;8.65;97.55
7170;BME280;3626;42.656;23.312;2023-03-26T00:27:40;94058.06;;;8.65;97.57
7170;BME280;3626;42.656;23.312;2023-03-26T00:27:46;94059.84;;;8.65;97.58
7170;BME280;3626;42.656;23.312;2023-03-26T00:27:52;94059.84;;;8.65;98.02
7170;BME280;3626;42.656;23.312;2023-03-26T00:27:58;94059.84;;;8.65;97.93
7170;BME280;3626;42.656;23.312;2023-03-26T00:28:05;94059.03;;;8.64;97.70
7170;BME280;3626;42.656;23.312;2023-03-26T00:28:12;94056.47;;;8.64;97.51
7170;BME280;3626;42.656;23.312;2023-03-26T00:28:18;94054.69;;;8.65;97.19
7170;BME280;3626;42.656;23.312;2023-03-26T00:28:25;94055.50;;;8.65;97.34
7170;BME280;3626;42.656;23.312;2023-03-26T00:28:31;94059.03;;;8.64;97.33
7170;BME280;3626;42.656;23.312;2023-03-26T00:28:38;94059.03;;;8.64;97.27
7170;BME280;3626;42.656;23.312;2023-03-26T00:28:44;94060.81;;;8.64;97.16
7170;BME280;3626;42.656;23.312;2023-03-26T00:28:51;94058.25;;;8.64;97.26
7170;BME280;3626;42.656;23.312;2023-03-26T00:28:57;94057.44;;;8.63;97.34
7170;BME280;3626;42.656;23.312;2023-03-26T00:29:04;94053.09;;;8.64;97.47
7170;BME280;3626;42.656;23.312;2023-03-26T00:29:10;94053.09;;;8.64;97.33
7170;BME280;3626;42.656;23.312;2023-03-26T00:29:18;94053.09;;;8.64;97.62
7170;BME280;3626;42.656;23.312;2023-03-26T00:29:23;94052.28;;;8.63;97.33
7170;BME280;3626;42.656;23.312;2023-03-26T00:29:32;94060.97;;;8.62;97.08
7170;BME280;3626;42.656;23.312;2023-03-26T00:29:39;94060.16;;;8.62;97.62
7170;BME280;3626;42.656;23.312;2023-03-26T00:29:45;94060.97;;;8.62;97.25
7170;BME280;3626;42.656;23.312;2023-03-26T00:29:52;94055.81;;;8.62;97.21
7170;BME280;3626;42.656;23.312;2023-03-26T00:30:00;94059.22;;;8.63;97.70
7170;BME280;3626;42.656;23.312;2023-03-26T00:30:08;94052.28;;;8.63;97.92
7170;BME280;3626;42.656;23.312;2023-03-26T00:30:14;94063.38;;;8.64;97.34
7170;BME280;3626;42.656;23.312;2023-03-26T00:30:21;94055.66;;;8.64;97.69
7170;BME280;3626;42.656;23.312;2023-03-26T00:30:28;94058.25;;;8.64;97.89
7170;BME280;3626;42.656;23.312;2023-03-26T00:30:34;94048.75;;;8.64;97.43
7170;BME280;3626;42.656;23.312;2023-03-26T00:30:40;94047.16;;;8.63;97.34
7170;BME280;3626;42.656;23.312;2023-03-26T00:30:46;94055.66;;;8.64;97.68
7170;BME280;3626;42.656;23.312;2023-03-26T00:30:57;94054.69;;;8.65;97.53
7170;BME280;3626;42.656;23.312;2023-03-26T00:31:04;94053.88;;;8.64;97.63
7170;BME280;3626;42.656;23.312;2023-03-26T00:31:12;94058.25;;;8.64;97.74
7170;BME280;3626;42.656;23.312;2023-03-26T00:31:18;94052.28;;;8.63;97.01
7170;BME280;3626;42.656;23.312;2023-03-26T00:31:24;94052.28;;;8.63;96.99
7170;BME280;3626;42.656;23.312;2023-03-26T00:31:30;94054.88;;;8.63;96.84
7170;BME280;3626;42.656;23.312;2023-03-26T00:31:36;94048.75;;;8.64;97.42
7170;BME280;3626;42.656;23.312;2023-03-26T00:31:44;94059.03;;;8.64;97.47
7170;BME280;3626;42.656;23.312;2023-03-26T00:31:51;94053.09;;;8.64;97.28
7170;BME280;3626;42.656;23.312;2023-03-26T00:31:57;94050.53;;;8.64;97.13
7170;BME280;3626;42.656;23.312;2023-03-26T00:32:03;94054.69;;;8.65;97.70
7170;BME280;3626;42.656;23.312;2023-03-26T00:32:09;94057.25;;;8.65;97.71
7170;BME280;3626;42.656;23.312;2023-03-26T00:32:14;94051.31;;;8.64;97.20
7170;BME280;3626;42.656;23.312;2023-03-26T00:32:21;94049.53;;;8.65;97.11
7170;BME280;3626;42.656;23.312;2023-03-26T00:32:27;94055.50;;;8.65;97.21
7170;BME280;3626;42.656;23.312;2023-03-26T00:32:33;94049.53;;;8.65;97.35
7170;BME280;3626;42.656;23.312;2023-03-26T00:32:39;94046.97;;;8.65;97.18
7170;BME280;3626;42.656;23.312;2023-03-26T00:32:45;94049.53;;;8.65;97.51
7170;BME280;3626;42.656;23.312;2023-03-26T00:32:51;94052.13;;;8.65;96.97
7170;BME280;3626;42.656;23.312;2023-03-26T00:32:56;94057.25;;;8.65;97.41
7170;BME280;3626;42.656;23.312;2023-03-26T00:33:02;94041.81;;;8.65;97.10
7170;BME280;3626;42.656;23.312;2023-03-26T00:33:08;94043.59;;;8.64;96.91
7170;BME280;3626;42.656;23.312;2023-03-26T00:33:16;94055.50;;;8.65;97.04
7170;BME280;3626;42.656;23.312;2023-03-26T00:33:26;94051.31;;;8.64;96.92
7170;BME280;3626;42.656;23.312;2023-03-26T00:33:32;94052.13;;;8.65;97.06
7170;BME280;3626;42.656;23.312;2023-03-26T00:33:42;94046.19;;;8.64;96.81
7170;BME280;3626;42.656;23.312;2023-03-26T00:33:50;94048.75;;;8.64;97.20
7170;BME280;3626;42.656;23.312;2023-03-26T00:33:59;94042.81;;;8.64;97.13
7170;BME280;3626;42.656;23.312;2023-03-26T00:34:07;94047.94;;;8.64;96.90
7170;BME280;3626;42.656;23.312;2023-03-26T00:34:14;94053.09;;;8.64;96.68
7170;BME280;3626;42.656;23.312;2023-03-26T00:34:22;94046.34;;;8.63;96.69
7170;BME280;3626;42.656;23.312;2023-03-26T00:34:29;94048.94;;;8.63;96.79
7170;BME280;3626;42.656;23.312;2023-03-26T00:34:35;94045.53;;;8.62;96.86
7170;BME280;3626;42.656;23.312;2023-03-26T00:34:41;94052.28;;;8.63;96.56
7170;BME280;3626;42.656;23.312;2023-03-26T00:34:50;94047.31;;;8.62;96.77
7170;BME280;3626;42.656;23.312;2023-03-26T00:34:56;94053.25;;;8.62;96.83
7170;BME280;3626;42.656;23.312;2023-03-26T00:35:02;94054.06;;;8.63;97.01
7170;BME280;3626;42.656;23.312;2023-03-26T00:35:09;94049.88;;;8.62;97.20
7170;BME280;3626;42.656;23.312;2023-03-26T00:35:18;94048.94;;;8.63;97.37
7170;BME280;3626;42.656;23.312;2023-03-26T00:35:23;94044.72;;;8.62;97.00
7170;BME280;3626;42.656;23.312;2023-03-26T00:35:29;94051.66;;;8.61;97.01
7170;BME280;3626;42.656;23.312;2023-03-26T00:35:38;94043.13;;;8.61;97.35
7170;BME280;3626;42.656;23.312;2023-03-26T00:35:44;94052.44;;;8.62;97.17
7170;BME280;3626;42.656;23.312;2023-03-26T00:35:52;94052.28;;;8.63;97.46
7170;BME280;3626;42.656;23.312;2023-03-26T00:35:59;94048.94;;;8.63;96.90
7170;BME280;3626;42.656;23.312;2023-03-26T00:36:07;94056.66;;;8.63;97.44
7170;BME280;3626;42.656;23.312;2023-03-26T00:36:15;94043.78;;;8.63;96.73
7170;BME280;3626;42.656;23.312;2023-03-26T00:36:22;94047.31;;;8.62;97.10
7170;BME280;3626;42.656;23.312;2023-03-26T00:36:29;94050.66;;;8.62;96.39
7170;BME280;3626;42.656;23.312;2023-03-26T00:36:35;94048.28;;;8.61;96.73
7170;BME280;3626;42.656;23.312;2023-03-26T00:36:41;94048.28;;;8.61;96.42
7170;BME280;3626;42.656;23.312;2023-03-26T00:36:48;94049.06;;;8.61;96.92